Terminal Aerodrome Forecast
Issued by NWS Charleston, WV

Current Version | Previous Version | Text Only | Print | Product List | Glossary Off
Versions: 1 2 3 4 5 6 7 8 9 10 11 12 13 14 15 16 17 18 19 20 21 22 23

000
FTUS41 KRLX 290200 AAA
TAFBKW
TAF AMD
KBKW 290238Z 2903/2924 00000KT P6SM SCT025 BKN080
     FM291000 00000KT P6SM BKN025
     FM291400 31004KT P6SM SCT030=

USA.gov is the U.S. government's official web portal to all federal, state and local government web resources and services.